Time;durP1;ratioP1;P1;durP2;ratioP2;P2;SDS_P1;SDS_P2;PMS_P1;PMS_P2;Temp;Humidity;BMP_temperature;BMP_pressure;BME280_temperature;BME280_humidity;BME280_pressure;Samples;Min_cycle;Max_cycle;Signal;HPM_P1;HPM_P2
2020/12/16 00:01:25;;;;;;;35.45;17.67;;;3.30;77.10;;;;;;4981776;28;20487;-77
2020/12/16 00:03:51;;;;;;;38.25;17.60;;;3.30;77.20;;;;;;4981850;28;20034;-78
2020/12/16 00:06:17;;;;;;;35.50;16.65;;;3.30;77.10;;;;;;4978644;28;20567;-77
2020/12/16 00:08:42;;;;;;;36.58;17.27;;;3.30;77.00;;;;;;4960051;28;20494;-78
2020/12/16 00:11:08;;;;;;;32.25;15.77;;;3.30;77.00;;;;;;4960219;28;20511;-78
2020/12/16 00:13:34;;;;;;;35.97;18.42;;;3.30;77.00;;;;;;4960029;28;20530;-78
2020/12/16 00:16:00;;;;;;;35.55;16.77;;;3.30;76.90;;;;;;4977310;28;20134;-78
2020/12/16 00:18:26;;;;;;;32.72;16.08;;;3.30;76.90;;;;;;4960223;28;20520;-79
2020/12/16 00:20:52;;;;;;;32.10;16.45;;;3.30;76.90;;;;;;4960436;28;20478;-77
2020/12/16 00:23:18;;;;;;;34.45;16.45;;;3.30;76.90;;;;;;4977676;28;20043;-78
2020/12/16 00:25:44;;;;;;;35.05;16.73;;;3.30;76.80;;;;;;4977334;28;20035;-77
2020/12/16 00:28:10;;;;;;;34.92;16.67;;;3.30;76.90;;;;;;4977270;28;20058;-78
2020/12/16 00:30:37;;;;;;;32.63;17.42;;;3.30;76.80;;;;;;4978162;28;20034;-78
2020/12/16 00:33:03;;;;;;;34.95;15.88;;;3.30;76.80;;;;;;4960256;28;20410;-78
2020/12/16 00:35:29;;;;;;;31.67;14.95;;;3.40;76.90;;;;;;4960348;28;20035;-78
2020/12/16 00:37:57;;;;;;;33.53;16.42;;;3.40;76.80;;;;;;4977307;28;20556;-77
2020/12/16 00:40:24;;;;;;;32.85;16.08;;;3.40;76.80;;;;;;4944030;28;20031;-78
2020/12/16 00:42:51;;;;;;;33.63;16.52;;;3.40;76.80;;;;;;4959557;28;20046;-78
2020/12/16 00:45:18;;;;;;;32.65;16.58;;;3.30;77.40;;;;;;4960375;28;20093;-78
2020/12/16 00:47:44;;;;;;;34.80;15.75;;;3.30;76.80;;;;;;4959997;28;20034;-78
2020/12/16 00:50:11;;;;;;;33.60;16.75;;;3.30;76.90;;;;;;4964486;28;20491;-77
2020/12/16 00:52:38;;;;;;;35.72;16.60;;;3.30;76.80;;;;;;4959713;28;20035;-78
2020/12/16 00:55:06;;;;;;;35.15;16.13;;;3.40;76.80;;;;;;4959151;28;20035;-78
2020/12/16 00:57:34;;;;;;;36.00;17.60;;;3.40;76.80;;;;;;4959264;28;20455;-78
2020/12/16 01:00:04;;;;;;;32.28;15.20;;;3.40;76.80;;;;;;4976770;28;20153;-77
2020/12/16 03:37:55;;;;;;;36.53;17.13;;;3.40;77.50;;;;;;5011366;28;20072;-83
2020/12/16 03:40:27;;;;;;;34.50;16.25;;;3.40;77.60;;;;;;4980370;28;20038;-82
2020/12/16 03:43:01;;;;;;;37.47;17.17;;;3.50;77.50;;;;;;5003053;28;20029;-81
2020/12/16 03:45:27;;;;;;;34.60;15.57;;;3.50;77.60;;;;;;4980541;28;20515;-82
2020/12/16 03:47:55;;;;;;;37.40;18.17;;;3.40;77.60;;;;;;5012400;28;20156;-81
2020/12/16 03:50:21;;;;;;;39.40;18.67;;;3.40;77.50;;;;;;4979735;28;20447;-81
2020/12/16 03:52:49;;;;;;;39.28;18.60;;;3.50;77.50;;;;;;4995885;28;20061;-81
2020/12/16 03:55:44;;;;;;;37.58;18.00;;;3.50;77.40;;;;;;5004064;28;20046;-80
2020/12/16 03:58:34;;;;;;;36.38;19.02;;;3.50;77.40;;;;;;4985087;28;20045;-80
2020/12/16 04:01:34;;;;;;;31.77;16.60;;;3.50;77.50;;;;;;5000500;28;20504;-79
2020/12/16 04:04:04;;;;;;;37.08;17.27;;;3.50;77.50;;;;;;4994855;28;20166;-77
2020/12/16 04:06:33;;;;;;;40.08;19.20;;;3.50;77.40;;;;;;4995307;28;20038;-77
2020/12/16 04:09:04;;;;;;;34.03;17.52;;;3.50;77.50;;;;;;4994904;28;20030;-76
2020/12/16 04:11:40;;;;;;;37.85;17.45;;;3.50;77.50;;;;;;4995213;28;20054;-76
2020/12/16 04:14:35;;;;;;;36.47;18.27;;;3.50;77.60;;;;;;5005764;28;20038;-76
2020/12/16 04:17:04;;;;;;;36.40;17.63;;;3.50;77.60;;;;;;4995431;28;20066;-76
2020/12/16 04:19:49;;;;;;;;;;;3.50;77.50;;;;;;5013406;28;20046;-77
2020/12/16 04:22:15;;;;;;;36.17;18.67;;;3.50;77.60;;;;;;4995793;28;19983;-77
2020/12/16 04:24:41;;;;;;;32.83;16.70;;;3.50;77.50;;;;;;5012714;28;20120;-77
2020/12/16 04:27:12;;;;;;;38.67;17.40;;;3.50;77.50;;;;;;5011220;28;20757;-77
2020/12/16 04:29:39;;;;;;;36.95;18.98;;;3.50;77.50;;;;;;4994912;28;20033;-76
2020/12/16 04:32:10;;;;;;;35.35;16.98;;;3.50;77.50;;;;;;4982725;28;20037;-80
2020/12/16 04:34:42;;;;;;;38.95;19.05;;;3.50;77.60;;;;;;4998932;28;20037;-81
2020/12/16 04:37:08;;;;;;;34.95;16.35;;;3.50;77.60;;;;;;4998248;28;20057;-80
2020/12/16 04:39:39;;;;;;;40.28;18.45;;;3.50;77.50;;;;;;4997405;28;20033;-80
2020/12/16 04:42:07;;;;;;;35.13;17.48;;;3.50;77.60;;;;;;4997416;28;20065;-80
2020/12/16 04:44:36;;;;;;;37.70;18.77;;;3.50;77.70;;;;;;4997868;28;20034;-81
2020/12/16 04:47:08;;;;;;;37.15;17.67;;;3.50;77.70;;;;;;4997508;28;20029;-80
2020/12/16 04:49:40;;;;;;;36.22;17.85;;;3.50;77.70;;;;;;4998101;28;20133;-80
2020/12/16 04:52:09;;;;;;;37.47;17.98;;;3.50;77.70;;;;;;4998317;28;20451;-80
2020/12/16 04:55:04;;;;;;;34.75;17.02;;;3.50;77.60;;;;;;5001224;28;20038;-80
2020/12/16 04:57:38;;;;;;;37.95;19.40;;;3.50;77.60;;;;;;4999109;28;20523;-79
2020/12/16 05:00:04;;;;;;;33.17;17.52;;;3.50;77.60;;;;;;5015813;28;20080;-80
2020/12/16 05:02:57;;;;;;;33.60;16.30;;;3.50;77.60;;;;;;5016657;28;20409;-82
2020/12/16 05:05:48;;;;;;;36.72;17.90;;;3.50;77.60;;;;;;4991013;28;20038;-80
2020/12/16 05:08:16;;;;;;;36.53;17.65;;;3.60;77.50;;;;;;5015870;28;20052;-81
2020/12/16 05:10:48;;;;;;;38.20;18.95;;;3.60;77.50;;;;;;4998191;28;20045;-81
2020/12/16 05:13:22;;;;;;;39.03;19.58;;;3.50;77.60;;;;;;4998380;28;20042;-82
2020/12/16 05:15:49;;;;;;;34.97;17.63;;;3.60;77.60;;;;;;4998357;28;20390;-81
2020/12/16 05:18:17;;;;;;;37.28;17.77;;;3.50;77.60;;;;;;4998025;28;20148;-80
2020/12/16 05:20:58;;;;;;;40.72;19.05;;;3.50;77.60;;;;;;5016089;28;20128;-81
2020/12/16 05:23:28;;;;;;;37.45;18.35;;;3.60;77.70;;;;;;5015644;28;20609;-82
2020/12/16 05:25:59;;;;;;;35.78;18.55;;;3.60;77.60;;;;;;5015993;28;20156;-83
2020/12/16 05:28:35;;;;;;;39.75;19.00;;;3.60;77.40;;;;;;5016319;28;20060;-84
2020/12/16 05:31:03;;;;;;;37.20;18.60;;;3.60;77.60;;;;;;5017493;28;20436;-85
2020/12/16 05:33:30;;;;;;;33.60;17.45;;;3.60;77.50;;;;;;5016460;28;20030;-82
2020/12/16 05:35:56;;;;;;;33.00;16.48;;;3.60;77.60;;;;;;5019551;28;20064;-85
2020/12/16 05:38:23;;;;;;;33.47;16.65;;;3.50;77.60;;;;;;5015590;28;20038;-85
2020/12/16 05:40:49;;;;;;;38.78;19.10;;;3.60;77.60;;;;;;5015819;28;20405;-83
2020/12/16 05:43:27;;;;;;;36.35;18.00;;;3.60;77.60;;;;;;5015657;28;20080;-83
2020/12/16 05:45:53;;;;;;;39.80;18.52;;;3.60;77.60;;;;;;5015368;28;20034;-84
2020/12/16 05:48:19;;;;;;;37.22;17.40;;;3.60;77.70;;;;;;5015129;28;20057;-85
2020/12/16 05:50:57;;;;;;;35.45;17.85;;;3.60;77.60;;;;;;5015002;28;20116;-78
2020/12/16 05:53:28;;;;;;;35.70;17.48;;;3.60;77.70;;;;;;5014988;28;20591;-82
2020/12/16 05:55:59;;;;;;;35.92;16.77;;;3.60;77.60;;;;;;4997436;28;20045;-80
2020/12/16 05:58:30;;;;;;;37.95;19.00;;;3.60;77.60;;;;;;5014564;28;20510;-79
2020/12/16 06:01:01;;;;;;;36.88;18.05;;;3.60;77.60;;;;;;5014723;28;20044;-79
2020/12/16 06:03:33;;;;;;;36.45;17.38;;;3.60;77.60;;;;;;4997059;28;20093;-80
2020/12/16 06:06:04;;;;;;;32.80;16.75;;;3.70;77.60;;;;;;5015065;28;20125;-81
2020/12/16 06:08:34;;;;;;;31.88;16.85;;;3.60;77.50;;;;;;5019862;28;20049;-80
2020/12/16 06:11:02;;;;;;;36.20;18.13;;;3.60;77.50;;;;;;5014356;28;20046;-81
2020/12/16 06:13:28;;;;;;;35.55;17.88;;;3.60;77.60;;;;;;5016016;28;20505;-88
2020/12/16 06:15:57;;;;;;;33.78;17.67;;;3.60;77.60;;;;;;5017190;28;20038;-90
2020/12/16 06:18:29;;;;;;;39.63;18.20;;;3.50;77.60;;;;;;5016450;28;20519;-91
2020/12/16 06:20:56;;;;;;;31.73;17.02;;;3.30;78.20;;;;;;4997532;28;20061;-89
2020/12/16 06:23:25;;;;;;;40.97;18.75;;;3.20;78.20;;;;;;4998269;28;20048;-86
2020/12/16 06:25:53;;;;;;;40.72;18.75;;;3.20;78.30;;;;;;4998230;28;20394;-91
2020/12/16 06:28:20;;;;;;;34.30;17.58;;;3.30;78.10;;;;;;5017002;28;20037;-86
2020/12/16 06:30:57;;;;;;;36.70;18.33;;;3.20;78.30;;;;;;5014947;28;20037;-87
2020/12/16 06:33:23;;;;;;;35.85;18.10;;;3.10;78.30;;;;;;5014687;28;20184;-85
2020/12/16 06:35:54;;;;;;;40.30;19.13;;;3.10;78.60;;;;;;5014189;28;20568;-86
2020/12/16 06:38:22;;;;;;;39.95;17.67;;;3.00;78.90;;;;;;4996793;28;20048;-85
2020/12/16 06:40:53;;;;;;;38.83;18.80;;;3.00;78.70;;;;;;5014758;28;20030;-85
2020/12/16 06:43:32;;;;;;;33.22;16.80;;;3.00;78.70;;;;;;5014278;28;20046;-86
2020/12/16 06:46:03;;;;;;;37.05;18.17;;;3.00;78.60;;;;;;5014170;28;20496;-84
2020/12/16 06:48:36;;;;;;;35.70;17.00;;;3.00;78.80;;;;;;5014054;28;20041;-85
2020/12/16 06:51:14;;;;;;;35.40;17.30;;;2.90;79.00;;;;;;5014873;28;20025;-85
2020/12/16 06:53:40;;;;;;;34.92;16.92;;;2.90;79.10;;;;;;4995998;28;20037;-88
2020/12/16 06:56:06;;;;;;;38.13;17.83;;;2.90;79.10;;;;;;4980196;28;20137;-85
2020/12/16 06:58:38;;;;;;;33.58;17.08;;;3.00;78.90;;;;;;5014273;28;20408;-86
2020/12/16 07:01:10;;;;;;;30.80;16.08;;;3.10;78.60;;;;;;5014297;28;20036;-84
2020/12/16 07:03:37;;;;;;;34.47;17.60;;;3.20;78.50;;;;;;4996080;28;20041;-84
2020/12/16 07:06:03;;;;;;;33.28;16.42;;;3.30;78.20;;;;;;5013583;28;20405;-85
2020/12/16 07:08:29;;;;;;;37.15;17.27;;;3.30;78.10;;;;;;5013583;28;20033;-85
2020/12/16 07:10:56;;;;;;;33.85;17.77;;;3.40;78.10;;;;;;5013801;28;20121;-86
2020/12/16 07:13:31;;;;;;;32.60;16.88;;;3.40;78.10;;;;;;4983694;28;20032;-90
2020/12/16 07:16:12;;;;;;;35.33;16.40;;;3.40;78.10;;;;;;5013916;28;20041;-85
2020/12/16 07:18:45;;;;;;;36.08;16.55;;;3.50;78.10;;;;;;4996877;28;20341;-86
2020/12/16 07:21:11;;;;;;;34.53;15.77;;;3.50;78.10;;;;;;5002974;28;20029;-87
2020/12/16 07:23:52;;;;;;;35.17;18.50;;;3.50;78.00;;;;;;5016860;28;20048;-87
2020/12/16 07:26:23;;;;;;;37.80;17.58;;;3.60;78.10;;;;;;5013964;28;20049;-86
2020/12/16 07:28:49;;;;;;;38.42;18.58;;;3.50;78.00;;;;;;4980091;28;20042;-85
2020/12/16 07:31:16;;;;;;;36.53;18.25;;;3.60;78.00;;;;;;5014087;28;20029;-84
2020/12/16 07:33:42;;;;;;;37.40;17.55;;;3.60;77.90;;;;;;5013499;28;20037;-85
2020/12/16 07:36:08;;;;;;;40.33;18.90;;;3.60;77.90;;;;;;5013788;28;20057;-87
2020/12/16 07:38:35;;;;;;;35.17;18.38;;;3.70;77.90;;;;;;5013863;28;20485;-84
2020/12/16 07:41:01;;;;;;;38.05;18.23;;;3.70;77.90;;;;;;5013492;28;20037;-85
2020/12/16 07:43:27;;;;;;;37.45;18.23;;;3.70;77.90;;;;;;4995811;28;20512;-87
2020/12/16 07:46:07;;;;;;;36.00;18.80;;;3.70;78.00;;;;;;5013703;28;20037;-86
2020/12/16 07:48:35;;;;;;;39.50;19.20;;;3.70;77.90;;;;;;5014034;28;20030;-85
2020/12/16 07:51:07;;;;;;;36.17;18.75;;;3.70;77.90;;;;;;5013671;28;20041;-84
2020/12/16 07:53:34;;;;;;;39.15;18.63;;;3.80;77.80;;;;;;4996518;28;20034;-86
2020/12/16 07:56:03;;;;;;;39.22;18.90;;;3.80;77.60;;;;;;4982508;28;20076;-88
2020/12/16 07:58:30;;;;;;;40.13;18.48;;;3.80;77.50;;;;;;5018386;28;20057;-90
2020/12/16 08:01:14;;;;;;;38.35;19.95;;;3.80;77.60;;;;;;5020347;28;20026;-93
2020/12/16 08:03:43;;;;;;;43.38;20.20;;;3.80;77.60;;;;;;5028534;28;20041;-90
2020/12/16 08:06:10;;;;;;;38.83;20.10;;;3.80;77.60;;;;;;5013740;28;20050;-93
2020/12/16 08:08:51;;;;;;;43.28;20.90;;;3.80;77.50;;;;;;4996269;28;20053;-88
2020/12/16 08:11:19;;;;;;;42.75;21.40;;;3.80;77.50;;;;;;5034861;28;20045;-94
2020/12/16 08:13:46;;;;;;;41.40;20.85;;;3.80;77.40;;;;;;5020964;28;20077;-86
2020/12/16 08:16:12;;;;;;;39.30;19.75;;;3.90;77.30;;;;;;5012914;28;20037;-94
2020/12/16 08:18:46;;;;;;;42.55;20.25;;;3.90;77.30;;;;;;5007879;28;20029;-93
2020/12/16 08:21:30;;;;;;;44.88;21.02;;;3.90;77.20;;;;;;5005863;28;20053;-89
2020/12/16 08:23:56;;;;;;;45.35;22.05;;;3.90;77.00;;;;;;5023244;28;20049;-91
2020/12/16 08:26:25;;;;;;;47.88;21.73;;;3.90;77.10;;;;;;5022928;28;20030;-86
2020/12/16 08:28:51;;;;;;;42.95;20.80;;;3.90;77.00;;;;;;5028840;28;20061;-91
2020/12/16 08:31:25;;;;;;;39.90;19.85;;;3.90;77.00;;;;;;5014453;28;20049;-96
2020/12/16 08:33:53;;;;;;;46.13;23.15;;;4.00;76.90;;;;;;5030902;28;20097;-91
2020/12/16 08:36:23;;;;;;;48.45;23.73;;;3.90;76.80;;;;;;5030685;28;20065;-93
2020/12/16 08:38:51;;;;;;;46.42;23.52;;;4.00;76.10;;;;;;5004017;28;20489;-90
2020/12/16 08:41:28;;;;;;;48.00;23.70;;;4.00;75.40;;;;;;5019676;28;20030;-91
2020/12/16 08:43:55;;;;;;;55.75;24.63;;;4.00;75.20;;;;;;5020209;28;20045;-88
2020/12/16 08:46:26;;;;;;;41.20;22.50;;;3.90;75.10;;;;;;5005509;28;20038;-91
2020/12/16 08:49:01;;;;;;;47.72;23.67;;;3.90;75.30;;;;;;5029676;28;20014;-88
2020/12/16 08:51:31;;;;;;;46.72;22.70;;;3.90;75.50;;;;;;5007829;28;20087;-89
2020/12/16 08:53:59;;;;;;;44.28;22.85;;;3.90;75.60;;;;;;5025552;28;20045;-87
2020/12/16 08:56:44;;;;;;;44.97;23.33;;;3.90;75.60;;;;;;5010435;28;20069;-91
2020/12/16 08:59:15;;;;;;;46.00;22.00;;;4.00;75.60;;;;;;5023423;28;20061;-91
2020/12/16 09:01:48;;;;;;;41.42;21.67;;;4.00;75.60;;;;;;5024805;28;20049;-92
2020/12/16 09:04:30;;;;;;;45.45;22.75;;;4.10;75.70;;;;;;5004525;28;20073;-92
2020/12/16 09:07:08;;;;;;;42.47;21.05;;;4.00;75.60;;;;;;5020594;28;20041;-91
2020/12/16 09:09:36;;;;;;;41.78;20.27;;;4.10;75.60;;;;;;5018850;28;20552;-91
2020/12/16 09:12:09;;;;;;;47.78;23.95;;;4.10;75.50;;;;;;5006122;28;20064;-88
2020/12/16 09:14:35;;;;;;;39.08;20.63;;;4.10;75.50;;;;;;5022181;28;20121;-91
2020/12/16 09:17:10;;;;;;;40.03;20.25;;;4.10;75.40;;;;;;5023462;28;20508;-88
2020/12/16 09:19:36;;;;;;;39.23;20.47;;;4.20;75.40;;;;;;5018887;28;20446;-93
2020/12/16 09:22:02;;;;;;;38.72;19.80;;;4.20;75.40;;;;;;5019386;28;20048;-90
2020/12/16 09:24:28;;;;;;;35.13;19.30;;;4.20;75.30;;;;;;5018484;28;20032;-93
2020/12/16 09:26:55;;;;;;;38.40;20.25;;;4.20;75.30;;;;;;5017014;28;20513;-88
2020/12/16 09:29:24;;;;;;;39.45;21.17;;;4.20;75.30;;;;;;5015791;28;20042;-86
2020/12/16 09:32:05;;;;;;;40.78;20.33;;;4.20;75.30;;;;;;5015429;28;20088;-87
2020/12/16 09:34:39;;;;;;;39.40;19.98;;;4.20;75.30;;;;;;5016116;28;20053;-89
2020/12/16 09:37:24;;;;;;;38.15;20.05;;;4.20;75.40;;;;;;4997756;28;20064;-87
2020/12/16 09:40:01;;;;;;;41.53;21.23;;;4.20;75.30;;;;;;5015388;28;20038;-85
2020/12/16 09:42:27;;;;;;;39.67;18.73;;;4.20;75.90;;;;;;5015408;28;20049;-85
2020/12/16 09:44:53;;;;;;;38.58;18.80;;;4.20;75.30;;;;;;5015491;28;20025;-86
2020/12/16 09:47:24;;;;;;;35.10;18.50;;;4.20;75.20;;;;;;5019433;28;20556;-85
2020/12/16 09:49:59;;;;;;;38.30;19.67;;;4.30;75.30;;;;;;5018666;28;20045;-86
2020/12/16 09:52:32;;;;;;;37.60;18.75;;;4.30;75.30;;;;;;5014459;28;20104;-86
2020/12/16 09:55:10;;;;;;;36.28;19.13;;;4.20;75.10;;;;;;5015050;28;20029;-84
2020/12/16 09:57:36;;;;;;;31.70;18.77;;;4.30;75.20;;;;;;4997476;28;20041;-89
2020/12/16 10:00:04;;;;;;;35.20;18.15;;;4.30;75.20;;;;;;5013444;28;20056;-85
2020/12/16 10:02:35;;;;;;;35.53;18.15;;;4.30;75.10;;;;;;5014940;28;20048;-85
2020/12/16 10:05:01;;;;;;;36.08;18.30;;;4.30;75.10;;;;;;4997255;28;20445;-86
2020/12/16 10:07:34;;;;;;;32.97;17.55;;;4.30;75.10;;;;;;5014704;28;20046;-86
2020/12/16 10:10:00;;;;;;;29.13;16.15;;;4.30;75.10;;;;;;5013763;28;20523;-85
2020/12/16 10:12:26;;;;;;;30.17;16.27;;;4.30;75.10;;;;;;4999124;28;20081;-89
2020/12/16 10:14:53;;;;;;;30.48;16.55;;;4.40;75.20;;;;;;5016359;28;20044;-90
2020/12/16 10:17:25;;;;;;;34.58;18.42;;;4.40;75.20;;;;;;5014832;28;20536;-88
2020/12/16 10:19:52;;;;;;;31.55;16.83;;;4.40;75.10;;;;;;4997482;28;20038;-82
2020/12/16 10:22:18;;;;;;;30.83;16.35;;;4.30;75.10;;;;;;4996697;28;20076;-84
2020/12/16 10:24:44;;;;;;;30.63;17.40;;;4.40;75.10;;;;;;4996939;28;20441;-84
2020/12/16 10:27:10;;;;;;;32.67;17.20;;;4.40;75.10;;;;;;5014016;28;20042;-83
2020/12/16 10:29:36;;;;;;;32.63;16.65;;;4.40;75.00;;;;;;4996455;28;20184;-84
2020/12/16 10:32:02;;;;;;;28.63;15.68;;;4.40;75.10;;;;;;5014266;28;20042;-85
2020/12/16 10:34:28;;;;;;;28.77;16.23;;;4.40;75.20;;;;;;5012750;28;20497;-85
2020/12/16 10:36:55;;;;;;;27.98;15.70;;;4.40;75.30;;;;;;5014220;28;20050;-86
2020/12/16 10:39:22;;;;;;;25.63;14.70;;;4.40;75.30;;;;;;5014557;28;20038;-88
2020/12/16 10:41:50;;;;;;;27.85;15.90;;;4.40;75.30;;;;;;5011554;28;20045;-88
2020/12/16 10:44:16;;;;;;;28.27;15.80;;;4.40;75.40;;;;;;5016095;28;20069;-90
2020/12/16 10:46:54;;;;;;;24.92;14.52;;;4.30;75.50;;;;;;5016155;28;20405;-92
2020/12/16 10:49:25;;;;;;;25.15;14.50;;;4.30;75.60;;;;;;4982727;28;20034;-90
2020/12/16 10:51:58;;;;;;;25.42;14.82;;;4.20;75.60;;;;;;4998173;28;20133;-91
2020/12/16 10:54:28;;;;;;;28.05;14.88;;;4.20;75.50;;;;;;5016322;28;20048;-88
2020/12/16 10:57:20;;;;;;;25.58;13.63;;;4.10;75.80;;;;;;5015828;28;20049;-90
2020/12/16 10:59:53;;;;;;;;;;;;;;;;;;;;;
2020/12/16 11:02:22;;;;;;;22.15;11.70;;;4.10;75.90;;;;;;5027852;28;19914;-91
2020/12/16 11:05:02;;;;;;;20.65;12.63;;;4.10;76.10;;;;;;5016592;28;20106;-89
2020/12/16 11:07:38;;;;;;;18.40;10.73;;;4.10;76.20;;;;;;5016106;28;20038;-90
2020/12/16 11:10:07;;;;;;;24.42;11.35;;;4.10;76.20;;;;;;5017498;28;20030;-90
2020/12/16 11:12:32;;;;;;;18.27;10.15;;;4.10;76.10;;;;;;5000055;28;20045;-91
2020/12/16 11:14:58;;;;;;;19.27;10.95;;;4.00;76.20;;;;;;5016804;28;20515;-92
2020/12/16 11:17:29;;;;;;;19.40;10.02;;;4.10;76.50;;;;;;5015803;28;20500;-91
2020/12/16 11:20:03;;;;;;;16.25;9.57;;;4.10;76.60;;;;;;4996788;28;20046;-89
2020/12/16 11:22:29;;;;;;;19.70;10.60;;;4.00;76.50;;;;;;4997285;28;20064;-88
2020/12/16 11:24:58;;;;;;;17.30;10.45;;;4.00;76.80;;;;;;4997020;28;20127;-90
2020/12/16 11:27:51;;;;;;;;;;;;;;;;;;;;;
2020/12/16 11:30:23;;;;;;;16.25;9.38;;;4.00;77.00;;;;;;5015093;28;20092;-89
2020/12/16 11:32:58;;;;;;;17.83;10.07;;;4.10;77.00;;;;;;4999293;28;20030;-94
2020/12/16 11:35:25;;;;;;;15.00;8.55;;;4.00;76.90;;;;;;5000849;28;20145;-90
2020/12/16 11:37:51;;;;;;;17.80;8.98;;;4.10;77.00;;;;;;4985629;28;20501;-91
2020/12/16 11:40:19;;;;;;;14.85;8.60;;;4.10;77.10;;;;;;5020981;28;20033;-91
2020/12/16 11:42:45;;;;;;;14.00;8.32;;;4.10;77.20;;;;;;5024528;28;20042;-90
2020/12/16 11:45:12;;;;;;;16.40;9.23;;;4.10;77.40;;;;;;5004522;28;20044;-89
2020/12/16 11:47:39;;;;;;;14.48;9.15;;;4.10;77.40;;;;;;5023416;28;20517;-92
2020/12/16 11:50:10;;;;;;;15.30;8.43;;;4.10;77.50;;;;;;5022008;28;20034;-88
2020/12/16 11:52:36;;;;;;;15.20;9.35;;;4.10;77.50;;;;;;4998631;28;20097;-89
2020/12/16 11:55:04;;;;;;;15.48;9.05;;;4.10;77.60;;;;;;5015690;28;20061;-91
2020/12/16 11:57:30;;;;;;;14.68;8.38;;;4.10;77.60;;;;;;5017091;28;20494;-91
2020/12/16 11:59:56;;;;;;;13.85;8.38;;;4.10;77.60;;;;;;4999262;28;20125;-90
2020/12/16 12:02:21;;;;;;;14.43;8.40;;;4.10;77.70;;;;;;4998321;28;20038;-92
2020/12/16 12:04:47;;;;;;;13.48;8.45;;;4.10;77.80;;;;;;4999933;28;20141;-88
2020/12/16 12:07:13;;;;;;;14.52;8.88;;;4.10;77.80;;;;;;5018379;28;20370;-92
2020/12/16 12:09:39;;;;;;;13.75;8.07;;;4.10;77.80;;;;;;5015014;28;20038;-90
2020/12/16 12:12:05;;;;;;;14.65;7.68;;;4.10;77.80;;;;;;4997563;28;20513;-89
2020/12/16 12:14:31;;;;;;;14.52;8.35;;;4.10;77.90;;;;;;5029789;28;20125;-91
2020/12/16 12:16:57;;;;;;;13.48;7.95;;;4.20;78.00;;;;;;5004462;28;20097;-92
2020/12/16 12:19:23;;;;;;;17.60;9.07;;;4.20;78.10;;;;;;5020418;28;20026;-92
2020/12/16 12:21:51;;;;;;;16.58;8.60;;;4.10;78.20;;;;;;5024863;28;20481;-90
2020/12/16 12:24:17;;;;;;;12.95;8.45;;;4.10;78.30;;;;;;5010792;28;20038;-91
2020/12/16 12:26:43;;;;;;;11.93;7.20;;;4.10;78.30;;;;;;5026392;28;20034;-89
2020/12/16 12:29:09;;;;;;;13.77;7.47;;;4.10;78.40;;;;;;5003151;28;20405;-88
2020/12/16 12:31:35;;;;;;;13.63;8.15;;;4.10;78.40;;;;;;5020701;28;20055;-90
2020/12/16 12:34:01;;;;;;;13.82;8.05;;;4.10;78.40;;;;;;5002883;28;20513;-89
2020/12/16 12:36:27;;;;;;;14.63;7.47;;;4.10;79.10;;;;;;5002665;28;20082;-89
2020/12/16 12:38:54;;;;;;;12.88;7.53;;;4.10;78.50;;;;;;5018882;28;20034;-88
2020/12/16 12:41:20;;;;;;;18.42;8.95;;;4.10;78.50;;;;;;5021010;28;20033;-87
2020/12/16 12:43:46;;;;;;;15.15;8.70;;;4.10;78.70;;;;;;5003386;28;20037;-91
2020/12/16 12:46:12;;;;;;;15.63;7.88;;;4.10;78.90;;;;;;5001434;28;20088;-88
2020/12/16 12:48:38;;;;;;;16.52;8.23;;;4.10;78.90;;;;;;4987181;28;20401;-87
2020/12/16 12:51:05;;;;;;;16.42;8.70;;;4.20;78.90;;;;;;5004967;28;20034;-89
2020/12/16 12:53:31;;;;;;;15.43;8.27;;;4.10;78.90;;;;;;5005707;28;20419;-87
2020/12/16 12:55:56;;;;;;;14.98;8.15;;;4.10;78.90;;;;;;5032867;28;20052;-88
2020/12/16 12:58:23;;;;;;;16.00;8.43;;;4.20;79.00;;;;;;5038432;28;20018;-87
2020/12/16 13:00:49;;;;;;;15.68;8.50;;;4.10;79.20;;;;;;5022277;28;20086;-88
2020/12/16 13:03:15;;;;;;;16.13;9.23;;;4.10;79.30;;;;;;5021840;28;20053;-86
2020/12/16 13:05:41;;;;;;;15.20;8.45;;;4.10;79.20;;;;;;5006472;28;20021;-89
2020/12/16 13:08:07;;;;;;;16.67;8.73;;;4.10;79.20;;;;;;5038998;28;20074;-88
2020/12/16 13:10:41;;;;;;;15.57;8.60;;;4.10;79.40;;;;;;5039715;28;20103;-92
2020/12/16 13:13:10;;;;;;;15.68;8.52;;;4.10;79.40;;;;;;5021946;28;20060;-89
2020/12/16 13:15:39;;;;;;;16.35;9.20;;;4.20;79.50;;;;;;5038547;28;20041;-90
2020/12/16 13:18:05;;;;;;;15.40;8.73;;;4.10;79.50;;;;;;5021661;28;20038;-89
2020/12/16 13:20:31;;;;;;;15.98;9.40;;;4.10;79.60;;;;;;5036863;28;20041;-90
2020/12/16 13:22:57;;;;;;;18.23;8.80;;;4.10;79.60;;;;;;5013462;28;20105;-91
2020/12/16 13:25:28;;;;;;;17.02;8.40;;;4.20;79.60;;;;;;5027989;28;20038;-91
2020/12/16 13:27:59;;;;;;;14.23;8.63;;;4.20;79.70;;;;;;5019943;28;20034;-90
2020/12/16 13:30:30;;;;;;;14.02;8.40;;;4.20;79.70;;;;;;4993869;28;20045;-90
2020/12/16 13:32:56;;;;;;;13.65;8.02;;;4.20;79.60;;;;;;5023242;28;20052;-90
2020/12/16 13:35:24;;;;;;;14.13;8.52;;;4.20;79.70;;;;;;5001866;28;20026;-90
2020/12/16 13:37:53;;;;;;;16.52;9.25;;;4.10;79.80;;;;;;5000812;28;20587;-90
2020/12/16 13:40:19;;;;;;;12.75;7.72;;;4.10;79.90;;;;;;5017602;28;20045;-89
2020/12/16 13:42:53;;;;;;;14.73;8.48;;;4.20;80.00;;;;;;5000505;28;20048;-92
2020/12/16 13:45:26;;;;;;;17.38;9.35;;;4.10;80.00;;;;;;5001764;28;20068;-90
2020/12/16 13:48:03;;;;;;;14.65;8.88;;;4.10;80.20;;;;;;5000684;28;20041;-89
2020/12/16 13:50:34;;;;;;;11.88;6.97;;;4.10;80.20;;;;;;5016628;28;20034;-89
2020/12/16 13:53:03;;;;;;;16.05;8.55;;;4.10;80.20;;;;;;5018389;28;20048;-89
2020/12/16 13:55:28;;;;;;;16.02;7.88;;;4.20;80.20;;;;;;5000980;28;20042;-91
2020/12/16 13:57:54;;;;;;;18.00;8.85;;;4.20;80.20;;;;;;5017744;28;20045;-89
2020/12/16 14:00:21;;;;;;;14.85;8.85;;;4.20;80.20;;;;;;4984882;28;20180;-89
2020/12/16 14:02:47;;;;;;;16.05;8.75;;;4.20;80.40;;;;;;5020821;28;20057;-91
2020/12/16 14:05:13;;;;;;;14.40;7.82;;;4.20;80.40;;;;;;5001338;28;20136;-92
2020/12/16 14:07:39;;;;;;;15.48;9.13;;;4.10;80.50;;;;;;4999363;28;20034;-91
2020/12/16 14:10:10;;;;;;;16.55;8.30;;;4.20;80.40;;;;;;4999810;28;20453;-91
2020/12/16 14:12:38;;;;;;;16.90;8.55;;;4.10;80.40;;;;;;5016073;28;20120;-91
2020/12/16 14:15:05;;;;;;;18.00;7.93;;;4.20;80.50;;;;;;5001898;28;20049;-94
2020/12/16 14:17:31;;;;;;;17.00;8.60;;;4.20;80.50;;;;;;4988482;28;20061;-90
2020/12/16 14:19:57;;;;;;;15.70;8.30;;;4.20;80.50;;;;;;5000405;28;20401;-89
2020/12/16 14:22:22;;;;;;;14.95;8.55;;;4.20;80.50;;;;;;4999889;28;20026;-85
2020/12/16 14:25:01;;;;;;;16.35;8.93;;;4.20;80.60;;;;;;5015426;28;20084;-90
2020/12/16 14:27:34;;;;;;;15.70;8.95;;;4.20;80.60;;;;;;5015643;28;20497;-89
2020/12/16 14:30:03;;;;;;;17.33;10.30;;;4.00;81.00;;;;;;4997627;28;20042;-89
2020/12/16 14:32:45;;;;;;;18.13;9.35;;;4.00;80.90;;;;;;4998563;28;20083;-90
2020/12/16 14:35:16;;;;;;;19.17;9.30;;;4.10;80.80;;;;;;4997318;28;20037;-88
2020/12/16 14:37:45;;;;;;;15.93;8.95;;;4.10;80.70;;;;;;4998685;28;20497;-88
2020/12/16 14:40:15;;;;;;;16.02;9.05;;;4.00;81.00;;;;;;5008164;28;20113;-89
2020/12/16 14:42:41;;;;;;;21.65;10.35;;;3.80;81.80;;;;;;4998663;28;20123;-88
2020/12/16 14:45:10;;;;;;;19.90;9.80;;;3.60;82.30;;;;;;4996888;28;20034;-87
2020/12/16 14:47:36;;;;;;;18.08;9.15;;;3.80;82.40;;;;;;4997328;28;20034;-91
2020/12/16 14:50:05;;;;;;;16.83;9.27;;;3.80;82.00;;;;;;5016624;28;20041;-89
2020/12/16 14:52:32;;;;;;;21.10;10.18;;;3.80;81.50;;;;;;5016222;28;20037;-89
2020/12/16 14:55:01;;;;;;;16.25;8.52;;;3.90;81.50;;;;;;5015979;28;20076;-90
2020/12/16 14:57:28;;;;;;;14.85;8.27;;;3.90;81.60;;;;;;4982056;28;20493;-91
2020/12/16 14:59:59;;;;;;;17.73;8.80;;;4.00;81.70;;;;;;4998503;28;20355;-91
2020/12/16 15:02:25;;;;;;;15.77;8.07;;;4.00;81.60;;;;;;5014803;28;20485;-87
2020/12/16 15:04:53;;;;;;;17.00;8.65;;;4.00;81.50;;;;;;5017382;28;20136;-93
2020/12/16 15:07:19;;;;;;;15.63;8.88;;;4.00;81.70;;;;;;5016523;28;20038;-87
2020/12/16 15:09:56;;;;;;;16.35;8.65;;;4.00;81.80;;;;;;5014611;28;20032;-89
2020/12/16 15:12:24;;;;;;;19.95;10.27;;;3.90;82.20;;;;;;5014306;28;20037;-89
2020/12/16 15:14:53;;;;;;;19.30;9.60;;;3.80;82.50;;;;;;4996357;28;20050;-89
2020/12/16 15:17:31;;;;;;;17.30;9.13;;;3.60;83.00;;;;;;5014343;28;20193;-84
2020/12/16 15:19:59;;;;;;;18.45;9.52;;;3.50;83.40;;;;;;4996475;28;20037;-86
2020/12/16 15:22:34;;;;;;;20.83;9.38;;;3.50;83.50;;;;;;4997506;28;20081;-90
2020/12/16 15:25:07;;;;;;;14.88;8.90;;;3.40;83.50;;;;;;5014227;28;20128;-90
2020/12/16 15:27:54;;;;;;;16.15;9.70;;;3.50;83.60;;;;;;4996717;28;20092;-89
2020/12/16 15:30:29;;;;;;;19.80;9.73;;;3.60;83.00;;;;;;4996566;28;20087;-89
2020/12/16 15:33:00;;;;;;;19.08;10.23;;;3.70;82.60;;;;;;4996886;28;20041;-89